createdAt,value
2022-11-02T00:00:18.532Z,12.40
2022-11-02T00:00:50.981Z,10.93
2022-11-02T00:01:26.438Z,11.63
2022-11-02T00:02:01.494Z,13.13
2022-11-02T00:02:33.896Z,12.23
2022-11-02T00:03:06.429Z,12.50
2022-11-02T00:03:41.530Z,12.57
2022-11-02T00:04:13.846Z,12.53
2022-11-02T00:04:46.081Z,12.87
2022-11-02T00:05:24.787Z,12.47
2022-11-02T00:05:56.991Z,13.23
2022-11-02T00:06:29.183Z,12.83
2022-11-02T00:07:01.408Z,11.07
2022-11-02T00:07:36.213Z,12.20
2022-11-02T00:08:08.425Z,11.70
2022-11-02T00:08:40.898Z,13.03
2022-11-02T00:09:15.679Z,12.87
2022-11-02T00:09:47.872Z,11.57
2022-11-02T00:10:20.640Z,12.02
2022-11-02T00:10:55.447Z,11.60
2022-11-02T00:11:27.639Z,9.57
2022-11-02T00:11:59.899Z,10.57
2022-11-02T00:12:32.117Z,10.93
2022-11-02T00:13:07.303Z,10.07
2022-11-02T00:13:39.687Z,9.10
2022-11-02T00:14:11.891Z,8.57
2022-11-02T00:14:46.717Z,8.20
2022-11-02T00:15:21.843Z,8.20
2022-11-02T00:15:54.079Z,8.17
2022-11-02T00:16:29.085Z,8.70
2022-11-02T00:17:01.306Z,8.50
2022-11-02T00:17:33.987Z,14.17
2022-11-02T00:18:12.101Z,12.87
2022-11-02T00:18:45.705Z,11.53
2022-11-02T00:19:17.912Z,13.77
2022-11-02T00:19:52.798Z,19.00
2022-11-02T00:20:26.376Z,16.95
2022-11-02T00:21:01.682Z,18.70
2022-11-02T00:21:34.328Z,27.80
2022-11-02T00:22:06.565Z,28.10
2022-11-02T00:22:41.943Z,26.87
2022-11-02T00:23:15.168Z,28.20
2022-11-02T00:23:48.091Z,28.30
2022-11-02T00:24:22.913Z,26.97
2022-11-02T00:24:55.897Z,27.87
2022-11-02T00:25:29.023Z,24.93
2022-11-02T00:26:02.546Z,23.50
2022-11-02T00:26:39.088Z,23.40
2022-11-02T00:27:11.498Z,20.75
2022-11-02T00:27:43.971Z,18.43
2022-11-02T00:28:18.966Z,15.70
2022-11-02T00:28:51.211Z,16.83
2022-11-02T00:29:24.434Z,13.40
2022-11-02T00:29:59.375Z,10.65
2022-11-02T00:30:34.290Z,9.90
2022-11-02T00:31:06.541Z,9.10
2022-11-02T00:31:41.347Z,8.50
2022-11-02T00:32:13.589Z,11.30
2022-11-02T00:32:45.897Z,12.20
2022-11-02T00:33:20.718Z,11.07
2022-11-02T00:33:52.977Z,9.50
2022-11-02T00:34:25.195Z,9.13
2022-11-02T00:34:57.382Z,10.83
2022-11-02T00:35:32.179Z,9.87
2022-11-02T00:36:04.730Z,9.90
2022-11-02T00:36:36.958Z,10.10
2022-11-02T00:37:12.913Z,10.20
2022-11-02T00:37:45.116Z,10.23
2022-11-02T00:38:17.351Z,10.00
2022-11-02T00:38:49.686Z,9.60
2022-11-02T00:39:24.490Z,8.87
2022-11-02T00:39:56.683Z,9.20
2022-11-02T00:40:29.328Z,9.13
2022-11-02T00:41:01.519Z,9.37
2022-11-02T00:41:36.360Z,10.30
2022-11-02T00:42:09.514Z,9.40
2022-11-02T00:42:41.810Z,9.53
2022-11-02T00:43:17.183Z,8.07
2022-11-02T00:43:49.398Z,8.67
2022-11-02T00:44:21.611Z,9.50
2022-11-02T00:44:56.630Z,10.90
2022-11-02T00:45:28.824Z,16.90
2022-11-02T00:46:03.703Z,17.40
2022-11-02T00:46:39.372Z,18.23
2022-11-02T00:47:12.015Z,15.80
2022-11-02T00:47:44.259Z,14.52
2022-11-02T00:48:19.129Z,13.68
2022-11-02T00:48:52.364Z,12.57
2022-11-02T00:49:24.746Z,13.13
2022-11-02T00:50:00.276Z,12.43
2022-11-02T00:50:32.758Z,9.80
2022-11-02T00:51:05.503Z,9.03
2022-11-02T00:51:40.641Z,9.40
2022-11-02T00:52:12.997Z,8.70
2022-11-02T00:52:45.618Z,9.25
2022-11-02T00:53:21.137Z,8.63
2022-11-02T00:53:57.680Z,9.35
2022-11-02T00:54:31.040Z,8.63
2022-11-02T00:55:05.972Z,8.20
2022-11-02T00:55:38.294Z,8.23
2022-11-02T00:56:10.805Z,8.63
2022-11-02T00:56:45.641Z,8.53
2022-11-02T00:57:17.879Z,8.80
2022-11-02T00:57:50.643Z,9.33
2022-11-02T00:58:26.309Z,8.47
2022-11-02T00:58:58.678Z,8.70
2022-11-02T00:59:30.919Z,8.33
2022-11-02T01:00:05.867Z,8.27
2022-11-02T01:00:38.522Z,7.90
2022-11-02T01:01:13.444Z,9.10
2022-11-02T01:01:49.534Z,7.30
2022-11-02T01:02:22.322Z,7.53
2022-11-02T01:02:54.635Z,7.93
2022-11-02T01:03:29.426Z,8.70
2022-11-02T01:04:01.662Z,7.20
2022-11-02T01:04:34.414Z,7.67
2022-11-02T01:05:10.957Z,7.65
2022-11-02T01:05:43.199Z,7.57
2022-11-02T01:06:16.329Z,8.30
2022-11-02T01:06:51.127Z,7.10
2022-11-02T01:07:23.323Z,8.03
2022-11-02T01:07:55.566Z,8.17
2022-11-02T01:08:27.825Z,8.20
2022-11-02T01:09:02.678Z,8.60
2022-11-02T01:09:35.144Z,7.72
2022-11-02T01:10:08.834Z,7.63
2022-11-02T01:10:47.209Z,8.33
2022-11-02T01:11:23.292Z,7.83
2022-11-02T01:11:56.655Z,8.57
2022-11-02T01:12:31.447Z,6.90
2022-11-02T01:13:03.672Z,7.80
2022-11-02T01:13:36.931Z,8.70
2022-11-02T01:14:12.343Z,7.53
2022-11-02T01:14:47.464Z,7.73
2022-11-02T01:15:22.694Z,7.70
2022-11-02T01:15:54.871Z,8.47
2022-11-02T01:16:30.078Z,7.40
2022-11-02T01:17:05.059Z,7.53
2022-11-02T01:17:37.433Z,8.00
2022-11-02T01:18:10.320Z,7.50
2022-11-02T01:18:45.616Z,7.50
2022-11-02T01:19:18.222Z,7.27
2022-11-02T01:19:50.772Z,6.97
2022-11-02T01:20:25.939Z,7.47
2022-11-02T01:20:58.214Z,7.70
2022-11-02T01:21:30.469Z,7.30
2022-11-02T01:22:05.299Z,7.23
2022-11-02T01:22:39.110Z,6.80
2022-11-02T01:23:11.315Z,6.80
2022-11-02T01:23:46.093Z,7.57
2022-11-02T01:24:18.296Z,6.50
2022-11-02T01:24:50.506Z,7.20
2022-11-02T01:25:25.324Z,6.63
2022-11-02T01:25:57.550Z,7.00
2022-11-02T01:26:29.758Z,6.80
2022-11-02T01:27:04.840Z,6.27
2022-11-02T01:27:37.074Z,6.40
2022-11-02T01:28:09.275Z,6.10
2022-11-02T01:28:44.545Z,6.33
2022-11-02T01:29:18.428Z,5.63
2022-11-02T01:29:51.798Z,5.97
2022-11-02T01:30:26.599Z,5.90
2022-11-02T01:30:59.239Z,5.90
2022-11-02T01:31:34.149Z,5.63
2022-11-02T01:32:11.686Z,5.20
2022-11-02T01:32:43.881Z,6.00
2022-11-02T01:33:16.162Z,6.20
2022-11-02T01:33:50.975Z,6.30
2022-11-02T01:34:23.191Z,5.87
2022-11-02T01:34:55.418Z,6.20
2022-11-02T01:35:30.213Z,6.80
2022-11-02T01:36:03.931Z,6.07
2022-11-02T01:36:36.131Z,6.07
2022-11-02T01:37:10.939Z,5.97
2022-11-02T01:37:44.141Z,5.87
2022-11-02T01:38:16.541Z,6.10
2022-11-02T01:38:51.587Z,5.30
2022-11-02T01:39:23.795Z,6.00
2022-11-02T01:39:56.047Z,5.67
2022-11-02T01:40:31.006Z,5.40
2022-11-02T01:41:03.294Z,5.40
2022-11-02T01:41:37.169Z,6.25
2022-11-02T01:42:20.598Z,6.30
2022-11-02T01:42:52.788Z,5.63
2022-11-02T01:43:26.488Z,6.83
2022-11-02T01:44:05.349Z,5.30
2022-11-02T01:44:37.545Z,6.13
2022-11-02T01:45:11.706Z,5.63
2022-11-02T01:45:43.964Z,5.57
2022-11-02T01:46:22.259Z,5.63
2022-11-02T01:47:00.848Z,5.63
2022-11-02T01:47:36.469Z,5.40
2022-11-02T01:48:11.290Z,5.30
2022-11-02T01:48:46.503Z,5.60
2022-11-02T01:49:20.242Z,6.00
2022-11-02T01:50:05.554Z,5.63
2022-11-02T01:50:37.755Z,6.47
2022-11-02T01:51:11.443Z,6.03
2022-11-02T01:51:49.446Z,6.40
2022-11-02T01:52:24.178Z,6.13
2022-11-02T01:52:56.451Z,5.70
2022-11-02T01:53:31.747Z,5.40
2022-11-02T01:54:07.742Z,6.30
2022-11-02T01:54:43.154Z,5.37
2022-11-02T01:55:22.159Z,6.20
2022-11-02T01:55:54.976Z,5.20
2022-11-02T01:56:31.057Z,5.57
2022-11-02T01:57:09.177Z,6.10
2022-11-02T01:57:43.062Z,5.43
2022-11-02T01:58:17.870Z,5.30
2022-11-02T01:58:56.403Z,6.10
2022-11-02T01:59:31.491Z,5.17
2022-11-02T02:00:09.679Z,5.43
2022-11-02T02:00:48.186Z,5.30
2022-11-02T02:01:20.580Z,5.00
2022-11-02T02:01:55.735Z,5.40
2022-11-02T02:02:30.789Z,5.70
2022-11-02T02:03:07.001Z,5.07
2022-11-02T02:03:43.076Z,6.00
2022-11-02T02:04:16.087Z,5.63
2022-11-02T02:04:51.861Z,5.57
2022-11-02T02:05:27.513Z,5.93
2022-11-02T02:06:04.846Z,5.13
2022-11-02T02:06:37.742Z,5.07
2022-11-02T02:07:13.838Z,5.33
2022-11-02T02:07:46.395Z,4.60
2022-11-02T02:08:20.440Z,5.50
2022-11-02T02:08:56.212Z,5.20
2022-11-02T02:09:29.225Z,5.47
2022-11-02T02:10:01.640Z,4.37
2022-11-02T02:10:36.948Z,4.67
2022-11-02T02:11:26.745Z,5.70
2022-11-02T02:11:59.081Z,5.23
2022-11-02T02:12:34.540Z,5.20
2022-11-02T02:13:07.744Z,4.47
2022-11-02T02:13:40.212Z,5.00
2022-11-02T02:14:17.212Z,5.40
2022-11-02T02:14:54.010Z,4.67
2022-11-02T02:15:30.693Z,4.90
2022-11-02T02:16:10.663Z,4.38
2022-11-02T02:17:12.362Z,4.60
2022-11-02T02:17:55.639Z,4.70
2022-11-02T02:18:31.686Z,4.10
2022-11-02T02:19:23.266Z,4.87
2022-11-02T02:20:02.312Z,4.28
2022-11-02T02:20:46.776Z,5.30
2022-11-02T02:21:29.962Z,4.40
2022-11-02T02:22:27.130Z,4.38
2022-11-02T02:23:28.045Z,5.40
2022-11-02T02:24:14.647Z,5.10
2022-11-02T02:24:51.201Z,5.30
2022-11-02T02:25:39.282Z,6.35
2022-11-02T02:26:49.661Z,5.73
2022-11-02T02:27:28.557Z,7.33
2022-11-02T02:28:13.127Z,5.25
2022-11-02T02:28:51.683Z,6.00
2022-11-02T02:29:24.842Z,6.27
2022-11-02T02:30:07.785Z,5.97
2022-11-02T02:30:47.039Z,6.45
2022-11-02T02:31:23.605Z,5.47
2022-11-02T02:32:01.590Z,5.53
2022-11-02T02:32:44.343Z,5.57
2022-11-02T02:33:21.438Z,5.70
2022-11-02T02:33:57.599Z,5.40
2022-11-02T02:34:37.310Z,6.07
2022-11-02T02:35:15.979Z,5.47
2022-11-02T02:35:52.858Z,5.83
2022-11-02T02:36:31.108Z,5.40
2022-11-02T02:37:08.290Z,5.20
2022-11-02T02:37:43.316Z,4.73
2022-11-02T02:38:24.034Z,5.13
2022-11-02T02:39:03.538Z,5.20
2022-11-02T02:39:42.256Z,5.33
2022-11-02T02:40:20.851Z,5.80
2022-11-02T02:40:57.826Z,5.70
2022-11-02T02:41:37.707Z,5.67
2022-11-02T02:42:15.977Z,6.30
2022-11-02T02:42:53.265Z,5.70
2022-11-02T02:43:33.158Z,5.50
2022-11-02T02:44:10.437Z,6.17
2022-11-02T02:44:46.674Z,5.20
2022-11-02T02:45:22.973Z,5.33
2022-11-02T02:46:01.099Z,5.70
2022-11-02T02:46:40.450Z,5.10
2022-11-02T02:47:18.000Z,4.77
2022-11-02T02:47:55.480Z,5.40
2022-11-02T02:48:28.842Z,5.27
2022-11-02T02:49:01.772Z,4.93
2022-11-02T02:49:41.062Z,4.97
2022-11-02T02:50:16.548Z,4.97
2022-11-02T02:50:49.978Z,5.13
2022-11-02T02:51:30.506Z,5.00
2022-11-02T02:52:03.570Z,4.40
2022-11-02T02:52:36.353Z,5.53
2022-11-02T02:53:11.480Z,5.20
2022-11-02T02:53:47.779Z,4.60
2022-11-02T02:54:25.391Z,5.07
2022-11-02T02:55:02.085Z,4.73
2022-11-02T02:55:38.343Z,5.00
2022-11-02T02:56:11.601Z,4.97
2022-11-02T02:56:49.882Z,5.30
2022-11-02T02:57:22.982Z,4.53
2022-11-02T02:57:56.900Z,4.40
2022-11-02T02:58:36.066Z,4.50
2022-11-02T02:59:15.079Z,4.70
2022-11-02T02:59:48.912Z,4.90
2022-11-02T03:00:26.613Z,4.67
2022-11-02T03:01:00.687Z,4.90
2022-11-02T03:01:34.593Z,4.63
2022-11-02T03:02:10.847Z,4.27
2022-11-02T03:02:43.589Z,4.50
2022-11-02T03:03:18.230Z,4.93
2022-11-02T03:03:53.031Z,4.47
2022-11-02T03:04:25.911Z,4.50
2022-11-02T03:04:58.124Z,4.40
2022-11-02T03:05:32.318Z,4.17
2022-11-02T03:06:18.641Z,4.33
2022-11-02T03:06:56.989Z,3.93
2022-11-02T03:07:34.381Z,4.50
2022-11-02T03:08:12.567Z,4.50
2022-11-02T03:08:50.563Z,4.70
2022-11-02T03:09:30.955Z,4.20
2022-11-02T03:10:12.855Z,3.90
2022-11-02T03:10:51.654Z,4.30
2022-11-02T03:11:24.061Z,4.20
2022-11-02T03:12:08.932Z,4.20
2022-11-02T03:12:50.940Z,3.77
2022-11-02T03:13:36.707Z,3.60
2022-11-02T03:14:18.908Z,3.63
2022-11-02T03:15:11.346Z,3.87
2022-11-02T03:15:47.548Z,3.80
2022-11-02T03:16:37.254Z,3.83
2022-11-02T03:17:18.720Z,3.50
2022-11-02T03:18:00.373Z,3.53
2022-11-02T03:18:38.803Z,3.60
2022-11-02T03:19:21.139Z,3.10
2022-11-02T03:19:56.155Z,3.60
2022-11-02T03:20:35.138Z,3.97
2022-11-02T03:21:15.971Z,4.40
2022-11-02T03:21:52.510Z,3.80
2022-11-02T03:22:31.232Z,3.40
2022-11-02T03:23:15.778Z,3.83
2022-11-02T03:23:53.106Z,3.40
2022-11-02T03:24:27.788Z,3.90
2022-11-02T03:25:07.090Z,3.80
2022-11-02T03:25:45.828Z,3.70
2022-11-02T03:26:23.105Z,3.57
2022-11-02T03:27:06.083Z,3.80
2022-11-02T03:27:41.655Z,3.53
2022-11-02T03:28:18.737Z,3.80
2022-11-02T03:29:01.919Z,3.57
2022-11-02T03:29:39.312Z,3.90
2022-11-02T03:30:14.071Z,3.77
2022-11-02T03:30:52.677Z,3.53
2022-11-02T03:31:31.928Z,3.90
2022-11-02T03:32:08.493Z,3.70
2022-11-02T03:32:48.244Z,3.33
2022-11-02T03:33:25.086Z,3.50
2022-11-02T03:34:00.711Z,3.87
2022-11-02T03:34:39.552Z,3.60
2022-11-02T03:35:16.787Z,3.73
2022-11-02T03:35:52.596Z,3.20
2022-11-02T03:36:32.907Z,4.13
2022-11-02T03:38:10.045Z,3.77
2022-11-02T03:38:45.236Z,3.90
2022-11-02T03:39:21.619Z,3.37
2022-11-02T03:39:58.598Z,3.30
2022-11-02T03:40:33.887Z,3.17
2022-11-02T03:41:07.289Z,3.10
2022-11-02T03:41:44.672Z,3.50
2022-11-02T03:42:22.266Z,3.30
2022-11-02T03:42:57.383Z,3.20
2022-11-02T03:43:33.057Z,3.27
2022-11-02T03:44:11.916Z,3.33
2022-11-02T03:44:45.571Z,3.47
2022-11-02T03:45:24.126Z,2.90
2022-11-02T03:45:58.610Z,3.03
2022-11-02T03:46:34.627Z,2.90
2022-11-02T03:47:12.985Z,3.50
2022-11-02T03:47:48.017Z,3.20
2022-11-02T03:48:22.956Z,3.50
2022-11-02T03:48:56.734Z,2.70
2022-11-02T03:49:32.955Z,3.00
2022-11-02T03:50:06.155Z,2.53
2022-11-02T03:50:42.723Z,2.93
2022-11-02T03:51:20.686Z,2.40
2022-11-02T03:51:54.266Z,2.17
2022-11-02T03:52:30.418Z,2.90
2022-11-02T03:53:10.482Z,2.40
2022-11-02T03:53:49.011Z,3.20
2022-11-02T03:54:27.675Z,2.80
2022-11-02T03:55:07.968Z,2.33
2022-11-02T03:55:43.546Z,2.70
2022-11-02T03:56:20.551Z,2.90
2022-11-02T03:56:58.568Z,2.93
2022-11-02T03:57:38.535Z,3.20
2022-11-02T03:58:11.851Z,2.70
2022-11-02T03:58:48.082Z,2.77
2022-11-02T03:59:22.936Z,2.80
2022-11-02T04:00:06.838Z,2.90
2022-11-02T04:00:51.164Z,2.70
2022-11-02T04:01:23.573Z,3.07
2022-11-02T04:01:56.338Z,3.03
2022-11-02T04:02:31.912Z,2.80
2022-11-02T04:03:07.182Z,2.93
2022-11-02T04:03:45.536Z,2.70
2022-11-02T04:04:21.101Z,3.20
2022-11-02T04:04:53.419Z,2.60
2022-11-02T04:05:29.890Z,2.57
2022-11-02T04:06:06.883Z,2.60
2022-11-02T04:06:42.069Z,2.40
2022-11-02T04:07:15.579Z,2.90
2022-11-02T04:08:06.250Z,2.33
2022-11-02T04:08:43.559Z,2.80
2022-11-02T04:09:17.215Z,2.57
2022-11-02T04:09:49.483Z,2.70
2022-11-02T04:10:21.834Z,2.53
2022-11-02T04:11:09.448Z,2.80
2022-11-02T04:11:56.806Z,3.00
2022-11-02T04:12:44.438Z,3.20
2022-11-02T04:13:31.682Z,2.70
2022-11-02T04:14:19.030Z,2.50
2022-11-02T04:14:56.607Z,2.70
2022-11-02T04:15:28.804Z,3.30
2022-11-02T04:16:01.064Z,2.67
2022-11-02T04:16:33.453Z,3.20
2022-11-02T04:17:24.167Z,3.03
2022-11-02T04:18:13.427Z,3.13
2022-11-02T04:19:00.920Z,2.93
2022-11-02T04:19:36.742Z,2.73
2022-11-02T04:20:12.425Z,2.60
2022-11-02T04:20:44.758Z,2.50
2022-11-02T04:21:16.953Z,2.50
2022-11-02T04:22:05.319Z,2.43
2022-11-02T04:22:54.840Z,2.20
2022-11-02T04:23:42.050Z,2.67
2022-11-02T04:24:29.263Z,2.20
2022-11-02T04:25:16.587Z,2.70
2022-11-02T04:26:23.582Z,2.63
2022-11-02T04:26:55.950Z,3.00
2022-11-02T04:27:28.170Z,2.87
2022-11-02T04:28:10.504Z,2.63
2022-11-02T04:28:51.535Z,2.50
2022-11-02T04:29:23.791Z,2.63
2022-11-02T04:30:01.279Z,2.60
2022-11-02T04:30:36.330Z,2.63
2022-11-02T04:31:08.619Z,2.37
2022-11-02T04:31:46.602Z,2.73
2022-11-02T04:32:35.273Z,2.53
2022-11-02T04:33:23.662Z,2.70
2022-11-02T04:34:01.583Z,2.67
2022-11-02T04:34:33.800Z,2.93
2022-11-02T04:35:08.488Z,2.47
2022-11-02T04:35:43.663Z,2.30
2022-11-02T04:36:16.051Z,2.33
2022-11-02T04:36:50.514Z,2.40
2022-11-02T04:37:37.880Z,2.50
2022-11-02T04:38:25.641Z,2.40
2022-11-02T04:39:01.538Z,3.10
2022-11-02T04:39:35.393Z,2.30
2022-11-02T04:40:08.602Z,2.50
2022-11-02T04:40:40.992Z,2.50
2022-11-02T04:41:29.560Z,2.60
2022-11-02T04:42:04.836Z,2.60
2022-11-02T04:42:46.647Z,2.27
2022-11-02T04:43:21.452Z,2.40
2022-11-02T04:43:53.971Z,2.47
2022-11-02T04:44:28.801Z,2.40
2022-11-02T04:45:27.808Z,2.10
2022-11-02T04:46:00.888Z,2.30
2022-11-02T04:46:34.621Z,2.40
2022-11-02T04:47:11.160Z,2.20
2022-11-02T04:47:43.389Z,2.10
2022-11-02T04:48:15.674Z,2.13
2022-11-02T04:48:48.352Z,2.33
2022-11-02T04:49:23.157Z,2.40
2022-11-02T04:49:55.685Z,2.20
2022-11-02T04:50:28.925Z,2.70
2022-11-02T04:51:03.747Z,2.23
2022-11-02T04:51:36.662Z,2.40
2022-11-02T04:52:09.968Z,2.23
2022-11-02T04:52:48.085Z,2.40
2022-11-02T04:53:20.490Z,2.30
2022-11-02T04:53:53.370Z,2.23
2022-11-02T04:54:28.643Z,2.40
2022-11-02T04:55:05.303Z,2.23
2022-11-02T04:55:37.946Z,2.40
2022-11-02T04:56:13.134Z,2.23
2022-11-02T04:56:45.639Z,1.80
2022-11-02T04:57:18.857Z,2.10
2022-11-02T04:57:53.812Z,2.27
2022-11-02T04:58:26.930Z,2.10
2022-11-02T04:59:00.475Z,1.90
2022-11-02T04:59:37.884Z,1.77
2022-11-02T05:00:12.292Z,1.93
2022-11-02T05:00:47.097Z,2.20
2022-11-02T05:01:22.782Z,1.80
2022-11-02T05:01:55.340Z,1.63
2022-11-02T05:02:27.910Z,2.07
2022-11-02T05:03:06.820Z,1.80
2022-11-02T05:03:42.998Z,2.20
2022-11-02T05:04:15.471Z,1.90
2022-11-02T05:04:50.378Z,2.43
2022-11-02T05:05:23.148Z,2.30
2022-11-02T05:05:57.466Z,2.20
2022-11-02T05:06:32.532Z,2.00
2022-11-02T05:07:06.664Z,2.10
2022-11-02T05:07:41.177Z,2.10
2022-11-02T05:08:16.052Z,2.70
2022-11-02T05:08:48.298Z,2.40
2022-11-02T05:09:20.519Z,2.43
2022-11-02T05:09:56.555Z,2.00
2022-11-02T05:10:28.984Z,1.87
2022-11-02T05:11:04.763Z,2.33
2022-11-02T05:11:37.878Z,1.87
2022-11-02T05:12:10.260Z,2.27
2022-11-02T05:12:45.776Z,1.90
2022-11-02T05:13:19.004Z,1.93
2022-11-02T05:13:51.246Z,2.40
2022-11-02T05:14:27.318Z,2.13
2022-11-02T05:14:59.585Z,2.00
2022-11-02T05:15:31.911Z,1.97
2022-11-02T05:16:13.095Z,2.07
2022-11-02T05:16:45.299Z,2.07
2022-11-02T05:17:19.151Z,2.13
2022-11-02T05:17:54.179Z,2.20
2022-11-02T05:18:28.133Z,2.13
2022-11-02T05:19:01.318Z,2.33
2022-11-02T05:19:36.965Z,2.10
2022-11-02T05:20:11.311Z,2.43
2022-11-02T05:20:43.863Z,2.20
2022-11-02T05:21:18.675Z,2.20
2022-11-02T05:21:51.106Z,1.77
2022-11-02T05:22:23.422Z,2.17
2022-11-02T05:22:55.749Z,2.00
2022-11-02T05:23:32.912Z,2.23
2022-11-02T05:24:07.329Z,2.03
2022-11-02T05:24:40.599Z,1.97
2022-11-02T05:25:16.415Z,2.30
2022-11-02T05:25:55.994Z,2.08
2022-11-02T05:26:29.352Z,2.00
2022-11-02T05:27:04.246Z,1.93
2022-11-02T05:27:39.838Z,2.15
2022-11-02T05:28:12.112Z,1.90
2022-11-02T05:28:47.243Z,1.75
2022-11-02T05:29:19.439Z,1.90
2022-11-02T05:29:52.876Z,2.05
2022-11-02T05:30:27.776Z,2.03
2022-11-02T05:31:01.873Z,1.90
2022-11-02T05:31:39.434Z,1.90
2022-11-02T05:32:14.859Z,2.20
2022-11-02T05:32:47.827Z,1.95
2022-11-02T05:33:20.585Z,1.92
2022-11-02T05:33:56.069Z,2.00
2022-11-02T05:34:29.203Z,2.10
2022-11-02T05:35:01.490Z,2.00
2022-11-02T05:35:34.757Z,1.97
2022-11-02T05:36:10.072Z,1.70
2022-11-02T05:36:47.814Z,2.13
2022-11-02T05:37:20.685Z,1.90
2022-11-02T05:37:58.182Z,2.30
2022-11-02T05:38:30.502Z,2.80
2022-11-02T05:39:05.036Z,2.50
2022-11-02T05:39:40.065Z,2.03
2022-11-02T05:40:12.808Z,1.90
2022-11-02T05:40:45.487Z,2.03
2022-11-02T05:41:20.633Z,1.98
2022-11-02T05:41:53.893Z,2.10
2022-11-02T05:42:26.480Z,1.67
2022-11-02T05:43:03.159Z,2.20
2022-11-02T05:43:35.838Z,2.00
2022-11-02T05:44:10.747Z,1.90
2022-11-02T05:44:47.360Z,2.33
2022-11-02T05:45:23.597Z,2.20
2022-11-02T05:45:58.021Z,2.07
2022-11-02T05:46:33.664Z,2.00
2022-11-02T05:47:08.547Z,2.13
2022-11-02T05:47:40.745Z,2.40
2022-11-02T05:48:15.539Z,2.05
2022-11-02T05:48:47.746Z,1.92
2022-11-02T05:49:19.946Z,2.33
2022-11-02T05:49:54.772Z,1.87
2022-11-02T05:50:27.058Z,1.85
2022-11-02T05:51:00.868Z,2.10
2022-11-02T05:51:33.163Z,2.40
2022-11-02T05:52:08.234Z,2.10
2022-11-02T05:52:40.501Z,2.00
2022-11-02T05:53:12.759Z,1.90
2022-11-02T05:53:47.566Z,2.40
2022-11-02T05:54:19.787Z,2.13
2022-11-02T05:54:51.980Z,2.10
2022-11-02T05:55:27.198Z,2.00
2022-11-02T05:56:00.235Z,2.20
2022-11-02T05:56:32.467Z,1.80
2022-11-02T05:57:07.258Z,2.00
2022-11-02T05:57:39.600Z,1.90
2022-11-02T05:58:11.879Z,1.90
2022-11-02T05:58:46.781Z,2.23
2022-11-02T05:59:19.030Z,2.20
2022-11-02T05:59:51.230Z,2.13
2022-11-02T06:00:24.403Z,2.20
2022-11-02T06:01:02.128Z,2.23
2022-11-02T06:01:34.498Z,2.37
2022-11-02T06:02:10.089Z,2.00
2022-11-02T06:02:44.906Z,2.30
2022-11-02T06:03:17.887Z,2.13
2022-11-02T06:03:53.458Z,2.22
2022-11-02T06:04:31.110Z,2.15
2022-11-02T06:05:03.660Z,2.00
2022-11-02T06:05:37.037Z,2.10
2022-11-02T06:06:15.241Z,2.20
2022-11-02T06:06:47.471Z,2.10
2022-11-02T06:07:20.698Z,1.98
2022-11-02T06:07:55.621Z,2.30
2022-11-02T06:08:31.557Z,2.03
2022-11-02T06:09:07.488Z,2.13
2022-11-02T06:09:42.668Z,2.20
2022-11-02T06:10:15.736Z,2.10
2022-11-02T06:10:51.818Z,2.25
2022-11-02T06:11:24.440Z,2.00
2022-11-02T06:11:56.704Z,2.35
2022-11-02T06:12:31.511Z,2.00
2022-11-02T06:13:04.657Z,1.90
2022-11-02T06:13:37.597Z,1.83
2022-11-02T06:14:12.593Z,2.13
2022-11-02T06:14:47.659Z,2.15
2022-11-02T06:15:21.842Z,1.70
2022-11-02T06:15:57.691Z,2.08
2022-11-02T06:16:30.060Z,1.83
2022-11-02T06:17:02.544Z,2.10
2022-11-02T06:17:46.503Z,1.90
2022-11-02T06:18:18.707Z,1.83
2022-11-02T06:18:51.012Z,1.80
2022-11-02T06:19:25.794Z,1.73
2022-11-02T06:19:57.982Z,1.60
2022-11-02T06:20:30.215Z,1.55
2022-11-02T06:21:05.126Z,1.55
2022-11-02T06:21:37.347Z,1.70
2022-11-02T06:22:09.550Z,1.42
2022-11-02T06:22:45.054Z,1.50
2022-11-02T06:23:18.423Z,1.40
2022-11-02T06:23:53.644Z,1.13
2022-11-02T06:24:25.884Z,1.25
2022-11-02T06:24:58.070Z,1.40
2022-11-02T06:25:32.963Z,1.50
2022-11-02T06:26:05.416Z,1.40
2022-11-02T06:26:40.255Z,1.30
2022-11-02T06:27:12.474Z,1.60
2022-11-02T06:27:51.117Z,1.50
2022-11-02T06:28:26.449Z,1.70
2022-11-02T06:28:59.696Z,1.30
2022-11-02T06:29:34.591Z,1.50
2022-11-02T06:30:08.312Z,1.75
2022-11-02T06:30:40.503Z,1.40
2022-11-02T06:31:17.353Z,1.50
2022-11-02T06:31:49.578Z,1.60
2022-11-02T06:32:21.750Z,1.80
2022-11-02T06:33:02.932Z,1.40
2022-11-02T06:33:38.312Z,2.00
2022-11-02T06:34:13.129Z,1.50
2022-11-02T06:34:45.323Z,1.48
2022-11-02T06:35:18.595Z,1.40
2022-11-02T06:35:54.827Z,1.40
2022-11-02T06:36:27.051Z,1.40
2022-11-02T06:36:59.254Z,1.27
2022-11-02T06:37:37.248Z,1.30
2022-11-02T06:38:09.439Z,1.10
2022-11-02T06:38:46.190Z,1.60
2022-11-02T06:39:18.434Z,1.57
2022-11-02T06:39:50.626Z,1.20
2022-11-02T06:40:26.618Z,1.47
2022-11-02T06:41:02.252Z,1.42
2022-11-02T06:41:34.488Z,1.50
2022-11-02T06:42:09.288Z,1.33
2022-11-02T06:42:45.284Z,1.35
2022-11-02T06:43:31.296Z,1.58
2022-11-02T06:44:03.626Z,1.35
2022-11-02T06:44:35.818Z,1.20
2022-11-02T06:45:11.870Z,1.50
2022-11-02T06:45:44.095Z,1.20
2022-11-02T06:46:16.318Z,1.20
2022-11-02T06:46:51.106Z,1.48
2022-11-02T06:47:23.295Z,1.30
2022-11-02T06:47:58.092Z,1.43
2022-11-02T06:48:35.519Z,1.30
2022-11-02T06:49:08.099Z,1.20
2022-11-02T06:49:40.312Z,1.30
2022-11-02T06:50:15.099Z,1.00
2022-11-02T06:50:47.446Z,1.10
2022-11-02T06:51:22.259Z,1.40
2022-11-02T06:51:54.504Z,1.30
2022-11-02T06:52:26.941Z,1.40
2022-11-02T06:53:02.089Z,1.37
2022-11-02T06:53:34.422Z,1.10
2022-11-02T06:54:08.892Z,1.25
2022-11-02T06:54:43.804Z,1.30
2022-11-02T06:55:16.619Z,1.65
2022-11-02T06:55:52.606Z,1.40
2022-11-02T06:56:27.461Z,1.25
2022-11-02T06:56:59.660Z,1.23
2022-11-02T06:57:36.248Z,1.10
2022-11-02T06:58:11.167Z,1.40
2022-11-02T06:58:43.403Z,1.37
2022-11-02T06:59:15.599Z,1.60
2022-11-02T06:59:53.954Z,1.35
2022-11-02T07:00:26.486Z,1.40
2022-11-02T07:01:02.712Z,1.30
2022-11-02T07:01:35.424Z,1.20
2022-11-02T07:02:11.539Z,1.33
2022-11-02T07:02:44.239Z,1.30
2022-11-02T07:03:19.163Z,1.30
2022-11-02T07:03:54.060Z,1.50
2022-11-02T07:04:26.276Z,1.30
2022-11-02T07:04:58.488Z,1.30
2022-11-02T07:05:34.756Z,1.20
2022-11-02T07:06:12.917Z,1.30
2022-11-02T07:06:49.100Z,1.30
2022-11-02T07:07:21.326Z,1.30
2022-11-02T07:07:53.709Z,1.00
2022-11-02T07:08:29.597Z,1.25
2022-11-02T07:09:01.889Z,1.30
2022-11-02T07:09:34.179Z,1.08
2022-11-02T07:10:10.744Z,1.10
2022-11-02T07:10:42.958Z,1.10
2022-11-02T07:11:15.720Z,1.30
2022-11-02T07:11:50.542Z,1.00
2022-11-02T07:12:23.319Z,1.20
2022-11-02T07:12:57.535Z,1.00
2022-11-02T07:13:32.487Z,1.27
2022-11-02T07:14:04.679Z,1.60
2022-11-02T07:14:36.938Z,1.33
2022-11-02T07:15:13.870Z,1.20
2022-11-02T07:15:46.172Z,1.40
2022-11-02T07:16:20.991Z,1.37
2022-11-02T07:16:53.230Z,1.13
2022-11-02T07:17:31.970Z,1.02
2022-11-02T07:18:06.248Z,1.00
2022-11-02T07:18:43.843Z,1.45
2022-11-02T07:19:16.124Z,1.10
2022-11-02T07:19:48.326Z,1.57
2022-11-02T07:20:23.402Z,1.03
2022-11-02T07:20:55.610Z,1.38
2022-11-02T07:21:30.824Z,1.60
2022-11-02T07:22:03.151Z,1.00
2022-11-02T07:22:35.435Z,1.10
2022-11-02T07:23:10.469Z,1.20
2022-11-02T07:23:42.806Z,1.43
2022-11-02T07:24:15.016Z,1.30
2022-11-02T07:24:49.843Z,1.23
2022-11-02T07:25:22.660Z,1.10
2022-11-02T07:25:55.090Z,1.10
2022-11-02T07:26:29.990Z,1.13
2022-11-02T07:27:02.196Z,1.13
2022-11-02T07:27:38.912Z,1.30
2022-11-02T07:28:13.726Z,1.40
2022-11-02T07:28:46.179Z,1.40
2022-11-02T07:29:18.902Z,1.00
2022-11-02T07:29:53.728Z,1.30
2022-11-02T07:30:26.189Z,1.47
2022-11-02T07:30:58.442Z,1.50
2022-11-02T07:31:33.501Z,1.60
2022-11-02T07:32:07.731Z,1.60
2022-11-02T07:32:40.730Z,1.60
2022-11-02T07:33:15.542Z,1.87
2022-11-02T07:33:50.369Z,1.53
2022-11-02T07:34:22.562Z,1.95
2022-11-02T07:34:57.409Z,2.50
2022-11-02T07:35:29.709Z,4.10
2022-11-02T07:36:06.622Z,6.27
2022-11-02T07:36:38.813Z,7.67
2022-11-02T07:37:13.648Z,6.00
2022-11-02T07:37:54.523Z,6.33
2022-11-02T07:38:26.710Z,5.75
2022-11-02T07:39:01.496Z,5.20
2022-11-02T07:39:33.683Z,3.80
2022-11-02T07:40:07.960Z,3.40
2022-11-02T07:40:42.874Z,3.42
2022-11-02T07:41:15.106Z,3.20
2022-11-02T07:41:51.736Z,2.87
2022-11-02T07:42:26.879Z,3.27
2022-11-02T07:43:02.729Z,2.78
2022-11-02T07:43:48.543Z,2.80
2022-11-02T07:44:39.995Z,2.77
2022-11-02T07:45:15.118Z,3.10
2022-11-02T07:45:47.315Z,2.85
2022-11-02T07:46:22.095Z,2.95
2022-11-02T07:46:54.283Z,3.00
2022-11-02T07:47:30.316Z,3.57
2022-11-02T07:48:02.685Z,3.58
2022-11-02T07:48:38.052Z,3.40
2022-11-02T07:49:16.030Z,3.30
2022-11-02T07:49:53.579Z,2.80
2022-11-02T07:50:27.251Z,2.80
2022-11-02T07:51:02.385Z,2.90
2022-11-02T07:51:34.675Z,3.00
2022-11-02T07:52:09.464Z,3.40
2022-11-02T07:52:46.459Z,3.20